Time;durP1;ratioP1;P1;durP2;ratioP2;P2;SDS_P1;SDS_P2;PMS_P1;PMS_P2;Temp;Humidity;BMP_temperature;BMP_pressure;BME280_temperature;BME280_humidity;BME280_pressure;Samples;Min_cycle;Max_cycle;Signal;HPM_P1;HPM_P2
2023/05/08 18:40:07;;;;;;;42.72;22.00;;;;;;;18.25;100.00;101612.16;5171917;23;20080;-79
2023/05/08 18:42:33;;;;;;;44.50;22.60;;;;;;;18.29;100.00;101619.13;4848449;29;20061;-81
2023/05/08 18:44:59;;;;;;;39.83;22.73;;;;;;;18.30;100.00;101608.91;4852625;29;20180;-81
2023/05/08 18:47:25;;;;;;;44.78;24.05;;;;;;;18.26;100.00;101605.56;4828650;29;20381;-81
2023/05/08 18:49:55;;;;;;;38.22;22.33;;;;;;;18.25;100.00;101605.72;4846883;29;20033;-82
2023/05/08 18:52:21;;;;;;;39.33;23.67;;;;;;;18.24;100.00;101604.88;4851097;29;20048;-82
2023/05/08 18:54:46;;;;;;;45.97;23.98;;;;;;;18.10;100.00;101600.72;4865965;29;20045;-81
2023/05/08 18:57:12;;;;;;;41.78;23.52;;;;;;;18.09;100.00;101595.31;4851221;29;20041;-81
2023/05/08 18:59:37;;;;;;;44.90;24.48;;;;;;;18.07;100.00;101595.47;4851112;29;20407;-81
2023/05/08 19:02:03;;;;;;;50.38;25.40;;;;;;;18.03;100.00;101588.47;4862856;29;20045;-81
2023/05/08 19:04:28;;;;;;;46.50;25.63;;;;;;;18.04;100.00;101587.47;4850133;29;20041;-81
2023/05/08 19:06:54;;;;;;;49.17;26.38;;;;;;;17.95;100.00;101578.13;4843220;29;20145;-81
2023/05/08 19:09:19;;;;;;;58.38;26.13;;;;;;;17.82;100.00;101575.72;4852277;29;20036;-81
2023/05/08 19:11:45;;;;;;;49.05;26.52;;;;;;;17.75;100.00;101569.00;4840230;29;20437;-79
2023/05/08 19:14:10;;;;;;;46.95;25.50;;;;;;;17.79;100.00;101566.78;4864428;29;20123;-80
2023/05/08 19:16:36;;;;;;;45.53;25.85;;;;;;;17.77;100.00;101571.63;4849162;29;20036;-81
2023/05/08 19:19:01;;;;;;;55.65;28.08;;;;;;;17.54;100.00;101562.81;4879140;29;20052;-81
2023/05/08 19:21:27;;;;;;;56.50;27.17;;;;;;;17.36;100.00;101566.31;4846870;29;20041;-81
2023/05/08 19:23:52;;;;;;;49.80;27.15;;;;;;;17.30;100.00;101578.03;4832698;29;20045;-80
2023/05/08 19:26:18;;;;;;;50.00;26.67;;;;;;;17.33;100.00;101572.19;4831590;29;20064;-81
2023/05/08 19:28:43;;;;;;;49.08;26.55;;;;;;;17.37;100.00;101570.84;4847291;29;20531;-80
2023/05/08 19:31:09;;;;;;;54.53;27.45;;;;;;;17.31;100.00;101573.34;4810415;29;20040;-81
2023/05/08 19:33:34;;;;;;;49.63;28.05;;;;;;;17.31;100.00;101554.84;4849924;29;20049;-80
2023/05/08 19:35:59;;;;;;;55.50;27.95;;;;;;;17.30;100.00;101566.94;4849608;29;20041;-80
2023/05/08 19:38:25;;;;;;;52.47;27.60;;;;;;;17.35;100.00;101583.97;4860965;29;20052;-80
2023/05/08 19:40:50;;;;;;;56.50;28.70;;;;;;;17.15;100.00;101573.94;4862490;29;20071;-80
2023/05/08 19:43:16;;;;;;;48.60;26.95;;;;;;;17.20;100.00;101589.09;4862750;29;20064;-80
2023/05/08 19:45:43;;;;;;;52.47;28.42;;;;;;;17.14;100.00;101591.59;4847992;29;20118;-80
2023/05/08 19:48:08;;;;;;;46.78;26.58;;;;;;;17.23;100.00;101594.34;4852419;29;20043;-80
2023/05/08 19:50:34;;;;;;;54.35;26.65;;;;;;;17.32;100.00;101597.25;4870929;29;20036;-80
2023/05/08 19:52:59;;;;;;;51.63;26.88;;;;;;;17.28;100.00;101585.56;4878283;29;20492;-80
2023/05/08 19:55:25;;;;;;;53.25;27.95;;;;;;;17.33;100.00;101598.97;4867831;29;20033;-82
2023/05/08 19:57:51;;;;;;;53.53;29.17;;;;;;;17.26;100.00;101595.94;4844336;29;20041;-81
2023/05/08 20:00:17;;;;;;;62.38;28.48;;;;;;;17.20;100.00;101600.16;4878559;29;20041;-81
2023/05/08 20:02:42;;;;;;;66.72;31.88;;;;;;;17.12;100.00;101591.72;4847429;29;20061;-82
2023/05/08 20:05:08;;;;;;;67.82;33.17;;;;;;;17.22;100.00;101606.44;4846703;29;20040;-81
2023/05/08 20:07:34;;;;;;;69.82;33.40;;;;;;;17.20;100.00;101602.94;4882837;29;20092;-82
2023/05/08 20:10:00;;;;;;;80.93;36.10;;;;;;;17.18;100.00;101602.19;4874512;29;20037;-81
2023/05/08 20:12:25;;;;;;;86.72;38.25;;;;;;;17.12;100.00;101596.38;4881822;29;20365;-82
2023/05/08 20:14:52;;;;;;;90.90;39.67;;;;;;;17.11;100.00;101597.41;4867927;29;20048;-83
2023/05/08 20:17:17;;;;;;;99.60;41.40;;;;;;;17.13;100.00;101595.34;4846512;29;20036;-81
2023/05/08 20:19:43;;;;;;;93.30;40.13;;;;;;;17.18;100.00;101596.66;4860926;29;20059;-84
2023/05/08 20:22:09;;;;;;;102.38;41.90;;;;;;;17.02;100.00;101594.50;4883206;29;20048;-83
2023/05/08 20:24:35;;;;;;;106.85;42.35;;;;;;;17.02;100.00;101593.59;4850291;29;20128;-82
2023/05/08 20:27:01;;;;;;;87.85;39.88;;;;;;;17.00;100.00;101592.88;4848047;29;20061;-82
2023/05/08 20:29:26;;;;;;;93.45;40.75;;;;;;;16.95;100.00;101587.78;4869542;29;20044;-82
2023/05/08 20:31:52;;;;;;;98.28;41.40;;;;;;;16.90;100.00;101599.31;4888287;29;20487;-82
2023/05/08 20:34:18;;;;;;;110.13;41.45;;;;;;;16.89;100.00;101602.22;4888055;29;20111;-81
2023/05/08 20:36:44;;;;;;;97.90;41.03;;;;;;;16.89;100.00;101599.44;4872888;29;20080;-81
2023/05/08 20:39:10;;;;;;;95.55;39.63;;;;;;;16.84;100.00;101604.47;4893257;29;20045;-81
2023/05/08 20:41:36;;;;;;;97.60;42.83;;;;;;;16.81;100.00;101604.78;4870159;29;20045;-81
2023/05/08 20:44:02;;;;;;;101.57;41.55;;;;;;;16.75;100.00;101581.34;4869975;29;20036;-81
2023/05/08 20:46:27;;;;;;;91.10;39.45;;;;;;;16.93;100.00;101600.03;4867745;29;20499;-81
2023/05/08 20:48:53;;;;;;;102.55;41.70;;;;;;;16.86;100.00;101596.97;4839309;29;20041;-81
2023/05/08 20:51:18;;;;;;;104.35;41.78;;;;;;;16.69;100.00;101593.84;4861436;29;20473;-81
2023/05/08 20:53:44;;;;;;;101.70;42.35;;;;;;;16.71;100.00;101591.81;4882138;29;20064;-80
2023/05/08 20:56:09;;;;;;;105.13;41.70;;;;;;;16.64;100.00;101592.53;4882467;29;20025;-80
2023/05/08 20:58:35;;;;;;;94.07;41.58;;;;;;;16.49;100.00;101572.72;4914881;29;20060;-80
2023/05/08 21:01:00;;;;;;;104.25;43.30;;;;;;;16.60;100.00;101597.47;4868701;29;20036;-80
2023/05/08 21:03:26;;;;;;;106.68;43.30;;;;;;;16.61;100.00;101593.69;4877078;29;20507;-81
2023/05/08 21:05:53;;;;;;;104.72;42.85;;;;;;;16.59;100.00;101597.63;4859964;29;20032;-81
2023/05/08 21:08:23;;;;;;;99.82;42.33;;;;;;;16.59;100.00;101587.41;4889526;29;20028;-81
2023/05/08 21:10:50;;;;;;;113.97;43.90;;;;;;;16.59;100.00;101595.72;4910354;29;20091;-80
2023/05/08 21:13:16;;;;;;;109.75;41.88;;;;;;;16.53;100.00;101588.88;4874404;29;20051;-80
2023/05/08 21:15:41;;;;;;;102.35;41.65;;;;;;;16.53;100.00;101591.63;4873800;29;20468;-81
2023/05/08 21:18:07;;;;;;;103.20;40.40;;;;;;;16.51;100.00;101590.91;4858748;29;20052;-81
2023/05/08 21:20:33;;;;;;;96.60;42.35;;;;;;;16.54;100.00;101584.22;4858720;29;20036;-81
2023/05/08 21:22:58;;;;;;;100.93;43.50;;;;;;;16.50;100.00;101591.91;4867948;29;20045;-81
2023/05/08 21:25:24;;;;;;;96.38;40.75;;;;;;;16.49;100.00;101592.06;4906386;29;20067;-81
2023/05/08 21:27:49;;;;;;;96.07;42.13;;;;;;;16.53;100.00;101588.00;4891783;29;20489;-81
2023/05/08 21:30:15;;;;;;;95.38;41.20;;;;;;;16.49;100.00;101590.16;4864793;29;20032;-81
2023/05/08 21:32:44;;;;;;;92.15;40.22;;;;;;;16.38;100.00;101583.88;4886995;29;20053;-81
2023/05/08 21:35:11;;;;;;;98.72;40.22;;;;;;;16.44;100.00;101588.84;4887481;29;20040;-81
2023/05/08 21:37:37;;;;;;;104.15;42.50;;;;;;;16.38;100.00;101592.19;4886467;29;20059;-81
2023/05/08 21:40:03;;;;;;;97.13;40.78;;;;;;;16.32;100.00;101588.97;4866231;29;20056;-81
2023/05/08 21:42:30;;;;;;;93.07;40.28;;;;;;;16.34;100.00;101584.16;4864378;29;20061;-81
2023/05/08 21:44:56;;;;;;;92.50;39.80;;;;;;;16.17;100.00;101571.91;4904512;29;20037;-81
2023/05/08 21:47:26;;;;;;;103.78;39.97;;;;;;;16.14;100.00;101566.66;4898176;29;20032;-81
2023/05/08 21:49:51;;;;;;;107.00;41.85;;;;;;;16.13;100.00;101575.09;4868826;29;20025;-82
2023/05/08 21:52:21;;;;;;;104.25;40.65;;;;;;;16.03;100.00;101564.00;4879042;29;20096;-81
2023/05/08 21:54:50;;;;;;;99.40;41.40;;;;;;;15.94;100.00;101564.84;4887643;29;20044;-81
2023/05/08 21:57:16;;;;;;;98.25;40.83;;;;;;;15.95;100.00;101564.72;4894849;29;20065;-82
2023/05/08 21:59:41;;;;;;;107.15;41.60;;;;;;;15.94;100.00;101557.44;4872497;29;20032;-82
2023/05/08 22:02:06;;;;;;;103.07;42.78;;;;;;;15.90;100.00;101567.00;4863826;29;20068;-81
2023/05/08 22:04:32;;;;;;;105.80;41.42;;;;;;;15.79;100.00;101556.94;4870335;29;20037;-81
2023/05/08 22:06:57;;;;;;;111.85;42.55;;;;;;;15.82;100.00;101575.09;4845708;29;20437;-81
2023/05/08 22:09:23;;;;;;;110.82;41.97;;;;;;;15.91;100.00;101559.59;4867631;29;20049;-81
2023/05/08 22:11:50;;;;;;;114.18;42.38;;;;;;;15.86;100.00;101568.31;4868136;29;20037;-81
2023/05/08 22:14:15;;;;;;;110.72;42.25;;;;;;;15.85;100.00;101558.25;4869675;29;20041;-81
2023/05/08 22:16:44;;;;;;;109.10;42.10;;;;;;;15.75;100.00;101565.59;4879137;29;20037;-81
2023/05/08 22:19:10;;;;;;;113.15;41.25;;;;;;;15.79;100.00;101562.47;4883519;29;20039;-81
2023/05/08 22:21:35;;;;;;;118.80;42.13;;;;;;;15.88;100.00;101566.28;4873775;29;20056;-81
2023/05/08 22:24:01;;;;;;;123.63;43.33;;;;;;;15.84;100.00;101561.16;4873921;29;20096;-82
2023/05/08 22:26:29;;;;;;;114.57;42.00;;;;;;;15.74;100.00;101547.28;4858764;29;20048;-82
2023/05/08 22:28:55;;;;;;;119.50;43.42;;;;;;;15.81;100.00;101545.75;4855684;29;20101;-82
2023/05/08 22:31:20;;;;;;;113.07;42.15;;;;;;;15.79;100.00;101553.31;4872644;29;20033;-82
2023/05/08 22:33:45;;;;;;;113.80;41.38;;;;;;;15.69;100.00;101556.00;4878053;29;20059;-82
2023/05/08 22:36:11;;;;;;;114.93;42.33;;;;;;;15.70;100.00;101543.06;4885283;29;20041;-82
2023/05/08 22:38:39;;;;;;;117.25;41.75;;;;;;;15.68;100.00;101545.94;4869913;29;20440;-82
2023/05/08 22:41:05;;;;;;;112.90;43.30;;;;;;;15.60;100.00;101541.09;4888915;29;20108;-81
2023/05/08 22:43:31;;;;;;;115.05;41.97;;;;;;;15.58;100.00;101520.19;4911412;29;20065;-82
2023/05/08 22:45:56;;;;;;;116.65;42.85;;;;;;;15.52;100.00;101529.88;4911306;29;20064;-82
2023/05/08 22:48:22;;;;;;;122.20;42.78;;;;;;;15.57;100.00;101526.72;4904525;29;20036;-82
2023/05/08 22:50:48;;;;;;;121.60;42.30;;;;;;;15.54;100.00;101522.31;4851876;29;20043;-82
2023/05/08 22:53:14;;;;;;;125.18;43.50;;;;;;;15.52;100.00;101513.31;4887993;29;20037;-81
2023/05/08 22:55:40;;;;;;;130.60;45.53;;;;;;;15.43;100.00;101503.97;4862506;29;20114;-81
2023/05/08 22:58:05;;;;;;;120.10;42.95;;;;;;;15.51;100.00;101516.22;4871337;29;20045;-81
2023/05/08 23:00:33;;;;;;;119.65;41.50;;;;;;;15.49;100.00;101512.72;4868716;29;20413;-81
2023/05/08 23:02:58;;;;;;;114.05;41.28;;;;;;;15.47;100.00;101510.09;4889945;29;20515;-81
2023/05/08 23:05:24;;;;;;;129.07;43.40;;;;;;;15.48;100.00;101514.63;4870888;29;20128;-81
2023/05/08 23:07:49;;;;;;;122.32;43.55;;;;;;;15.44;100.00;101507.59;4885539;29;20087;-81
2023/05/08 23:10:15;;;;;;;117.57;42.55;;;;;;;15.38;100.00;101502.63;4846677;29;20056;-81
2023/05/08 23:12:41;;;;;;;117.03;42.70;;;;;;;15.38;100.00;101506.28;4888330;29;20089;-81
2023/05/08 23:15:07;;;;;;;124.15;41.78;;;;;;;15.48;100.00;101514.63;4856392;29;20403;-80
2023/05/08 23:17:33;;;;;;;127.22;43.40;;;;;;;15.58;100.00;101511.91;4885953;29;20127;-81
2023/05/08 23:19:58;;;;;;;115.70;43.10;;;;;;;15.50;100.00;101496.03;4870091;29;20067;-81
2023/05/08 23:22:24;;;;;;;119.47;41.40;;;;;;;15.49;100.00;101496.16;4855849;29;20037;-81
2023/05/08 23:24:49;;;;;;;113.25;41.80;;;;;;;15.47;100.00;101490.78;4871635;29;20045;-81
2023/05/08 23:27:15;;;;;;;119.88;42.17;;;;;;;15.34;100.00;101473.56;4857600;29;20044;-81
2023/05/08 23:29:40;;;;;;;118.43;42.65;;;;;;;15.50;100.00;101486.88;4896216;29;20063;-81
2023/05/08 23:32:06;;;;;;;118.40;42.58;;;;;;;15.50;100.00;101475.84;4886231;29;20044;-81
2023/05/08 23:34:31;;;;;;;108.53;41.22;;;;;;;15.52;100.00;101477.44;4871484;29;20083;-81
2023/05/08 23:36:57;;;;;;;126.45;43.22;;;;;;;15.50;100.00;101478.59;4890702;29;20392;-82
2023/05/08 23:39:22;;;;;;;120.03;41.60;;;;;;;15.57;100.00;101468.75;4878887;29;20053;-81
2023/05/08 23:41:48;;;;;;;116.75;43.50;;;;;;;15.55;100.00;101470.78;4848348;29;20036;-82
2023/05/08 23:44:14;;;;;;;110.35;40.47;;;;;;;15.47;100.00;101471.47;4861203;29;20056;-82
2023/05/08 23:46:40;;;;;;;120.15;41.38;;;;;;;15.44;100.00;101467.06;4892021;29;20096;-82
2023/05/08 23:49:07;;;;;;;112.10;41.33;;;;;;;15.39;100.00;101458.34;4909510;29;20036;-81
2023/05/08 23:51:33;;;;;;;103.00;38.75;;;;;;;15.33;100.00;101466.31;4887052;29;20049;-81
2023/05/08 23:53:59;;;;;;;107.75;40.53;;;;;;;15.34;100.00;101454.25;4861561;29;20041;-81
2023/05/08 23:56:25;;;;;;;108.85;37.90;;;;;;;15.36;100.00;101442.06;4848145;29;20040;-81
2023/05/08 23:58:51;;;;;;;100.22;37.42;;;;;;;15.31;100.00;101430.56;4886467;29;20095;-81
